Main page
METAR-TAF:

METAR-TAF

Airports :

Oban, Scotland

Oban Airport

latitude: 56-27-49N, longitude: 5-24-00W, elevation: 7 m

Current weather observation

The report was made 8 hours and 21 minutes ago, at 15:50 UTC
Wind 5 kt from the West
Temperature 16°C
Humidity 72%
Pressure 1016 hPa
Visibility 10 km or more
Few clouds at a height of 2200 ft

METAR: EGEO 191550Z 28005KT 9999 FEW022 16/11 Q1016

Time: 01:11 (00:11 UTC)

Forecast

The report was made 10 hours and 12 minutes ago, at 13:59 UTC
Forecast valid from 19 at 15 UTC to 19 at 17 UTC
Wind 5 kt from variable directions
Visibility 10 km or more
Scattered clouds at a height of 2500 ft

TAF: EGEO 191359Z 1915/1917 VRB05KT 9999 SCT025

Weather observations and forecasts of more than 4000 airports (METAR and TAF reports).

The available stations are represented by yellow and red dots on the map.

Hover mouse over dot to see the name of the station.

Then click to see weather observations and forecasts.

To change the map : click on the green buttons with a black cross to zoom in, on the green button with a dash to zoom out, or on the green arrows for adjacent maps.


METAR-TAF: